createdAt,value
2017-10-30T00:00:24.162Z,1005.7
2017-10-30T00:01:26.519Z,1005.6
2017-10-30T00:02:28.904Z,1005.6
2017-10-30T00:03:31.273Z,1005.7
2017-10-30T00:04:33.643Z,1005.7
2017-10-30T00:05:36.008Z,1005.7
2017-10-30T00:06:38.377Z,1005.7
2017-10-30T00:07:41.107Z,1005.7
2017-10-30T00:08:43.827Z,1005.7
2017-10-30T00:09:46.196Z,1005.7
2017-10-30T00:10:48.572Z,1005.8
2017-10-30T00:11:50.927Z,1005.8
2017-10-30T00:12:53.314Z,1005.8
2017-10-30T00:13:55.671Z,1005.8
2017-10-30T00:14:58.040Z,1005.8
2017-10-30T00:16:00.410Z,1005.8
2017-10-30T00:17:02.773Z,1005.8
2017-10-30T00:18:05.138Z,1005.8
2017-10-30T00:19:07.511Z,1005.8
2017-10-30T00:20:09.872Z,1005.9
2017-10-30T00:21:12.248Z,1006
2017-10-30T00:22:14.615Z,1005.9
2017-10-30T00:23:16.985Z,1005.9
2017-10-30T00:24:19.349Z,1005.9
2017-10-30T00:25:21.716Z,1005.9
2017-10-30T00:26:24.075Z,1005.9
2017-10-30T00:27:26.451Z,1005.9
2017-10-30T00:28:28.808Z,1006
2017-10-30T00:29:31.182Z,1006
2017-10-30T00:30:33.545Z,1006
2017-10-30T00:31:35.910Z,1006
2017-10-30T00:32:38.276Z,1006
2017-10-30T00:33:40.649Z,1006.1
2017-10-30T00:34:43.022Z,1006.1
2017-10-30T00:35:45.377Z,1006.1
2017-10-30T00:36:47.739Z,1006.1
2017-10-30T00:37:50.121Z,1006.1
2017-10-30T00:38:52.488Z,1006.1
2017-10-30T00:39:54.860Z,1006.2
2017-10-30T00:40:57.229Z,1006.2
2017-10-30T00:41:59.604Z,1006.1
2017-10-30T00:43:02.333Z,1006.1
2017-10-30T00:44:04.694Z,1006.2
2017-10-30T00:45:07.053Z,1006.1
2017-10-30T00:46:09.411Z,1006.2
2017-10-30T00:47:11.783Z,1006.2
2017-10-30T00:48:14.499Z,1006.2
2017-10-30T00:49:16.869Z,1006.2
2017-10-30T00:50:19.226Z,1006.1
2017-10-30T00:51:21.592Z,1006.2
2017-10-30T00:52:23.979Z,1006.3
2017-10-30T00:53:26.335Z,1006.3
2017-10-30T00:54:28.699Z,1006.3
2017-10-30T00:55:31.066Z,1006.3
2017-10-30T00:56:33.444Z,1006.3
2017-10-30T00:57:36.169Z,1006.3
2017-10-30T00:58:38.542Z,1006.3
2017-10-30T00:59:41.266Z,1006.3
2017-10-30T01:00:43.632Z,1006.3
2017-10-30T01:01:46.014Z,1006.3
2017-10-30T01:02:48.373Z,1006.3
2017-10-30T01:03:50.741Z,1006.3
2017-10-30T01:04:53.112Z,1006.3
2017-10-30T01:05:55.479Z,1006.3
2017-10-30T01:06:57.854Z,1006.3
2017-10-30T01:08:00.229Z,1006.3
2017-10-30T01:09:02.594Z,1006.4
2017-10-30T01:10:04.960Z,1006.3
2017-10-30T01:11:07.337Z,1006.4
2017-10-30T01:12:09.695Z,1006.4
2017-10-30T01:13:12.788Z,1006.4
2017-10-30T01:14:15.157Z,1006.3
2017-10-30T01:15:17.524Z,1006.4
2017-10-30T01:16:19.889Z,1006.3
2017-10-30T01:17:22.263Z,1006.3
2017-10-30T01:18:24.612Z,1006.4
2017-10-30T01:19:26.987Z,1006.3
2017-10-30T01:20:29.367Z,1006.3
2017-10-30T01:21:31.736Z,1006.4
2017-10-30T01:22:34.105Z,1006.4
2017-10-30T01:23:36.468Z,1006.4
2017-10-30T01:24:38.837Z,1006.4
2017-10-30T01:25:41.218Z,1006.4
2017-10-30T01:26:43.578Z,1006.4
2017-10-30T01:27:45.948Z,1006.4
2017-10-30T01:28:48.312Z,1006.4
2017-10-30T01:29:50.675Z,1006.5
2017-10-30T01:30:53.050Z,1006.4
2017-10-30T01:31:55.412Z,1006.4
2017-10-30T01:32:57.768Z,1006.4
2017-10-30T01:34:00.142Z,1006.4
2017-10-30T01:35:02.504Z,1006.4
2017-10-30T01:36:04.887Z,1006.4
2017-10-30T01:37:07.241Z,1006.5
2017-10-30T01:38:09.613Z,1006.5
2017-10-30T01:39:12.330Z,1006.5
2017-10-30T01:40:14.693Z,1006.5
2017-10-30T01:41:17.060Z,1006.5
2017-10-30T01:42:19.422Z,1006.5
2017-10-30T01:43:21.779Z,1006.5
2017-10-30T01:44:24.542Z,1006.6
2017-10-30T01:45:26.888Z,1006.6
2017-10-30T01:46:29.256Z,1006.5
2017-10-30T01:47:31.626Z,1006.5
2017-10-30T01:48:33.992Z,1006.6
2017-10-30T01:49:36.358Z,1006.6
2017-10-30T01:50:38.732Z,1006.7
2017-10-30T01:51:41.085Z,1006.6
2017-10-30T01:52:43.460Z,1006.7
2017-10-30T01:53:46.191Z,1006.6
2017-10-30T01:54:48.561Z,1006.6
2017-10-30T01:55:50.933Z,1006.7
2017-10-30T01:56:53.295Z,1006.6
2017-10-30T01:57:55.657Z,1006.6
2017-10-30T01:58:58.037Z,1006.6
2017-10-30T02:00:00.412Z,1006.6
2017-10-30T02:01:02.778Z,1006.7
2017-10-30T02:02:05.146Z,1006.6
2017-10-30T02:03:07.514Z,1006.6
2017-10-30T02:04:09.880Z,1006.7
2017-10-30T02:05:12.251Z,1006.7
2017-10-30T02:06:14.625Z,1006.7
2017-10-30T02:07:17.342Z,1006.7
2017-10-30T02:08:19.702Z,1006.7
2017-10-30T02:09:22.069Z,1006.7
2017-10-30T02:10:24.434Z,1006.7
2017-10-30T02:11:26.808Z,1006.7
2017-10-30T02:12:29.175Z,1006.7
2017-10-30T02:13:31.538Z,1006.7
2017-10-30T02:14:33.904Z,1006.7
2017-10-30T02:15:36.281Z,1006.7
2017-10-30T02:16:38.649Z,1006.7
2017-10-30T02:17:41.019Z,1006.7
2017-10-30T02:18:43.732Z,1006.8
2017-10-30T02:19:46.102Z,1006.8
2017-10-30T02:20:48.478Z,1006.8
2017-10-30T02:21:50.860Z,1006.8
2017-10-30T02:22:53.210Z,1006.9
2017-10-30T02:23:55.938Z,1006.8
2017-10-30T02:24:58.317Z,1006.9
2017-10-30T02:26:00.675Z,1006.9
2017-10-30T02:27:03.042Z,1006.9
2017-10-30T02:28:05.404Z,1007
2017-10-30T02:29:08.117Z,1006.9
2017-10-30T02:30:10.492Z,1007
2017-10-30T02:31:13.231Z,1006.9
2017-10-30T02:32:15.603Z,1007
2017-10-30T02:33:17.968Z,1007
2017-10-30T02:34:20.718Z,1007
2017-10-30T02:35:23.081Z,1007
2017-10-30T02:36:25.816Z,1007
2017-10-30T02:37:28.180Z,1007.1
2017-10-30T02:38:30.547Z,1007.1
2017-10-30T02:39:32.905Z,1007.1
2017-10-30T02:40:35.661Z,1007.1
2017-10-30T02:41:38.008Z,1007.1
2017-10-30T02:42:40.378Z,1007.1
2017-10-30T02:43:42.756Z,1007.1
2017-10-30T02:44:45.119Z,1007.1
2017-10-30T02:45:47.494Z,1007.2
2017-10-30T02:46:49.873Z,1007.2
2017-10-30T02:47:52.222Z,1007.2
2017-10-30T02:48:54.605Z,1007.2
2017-10-30T02:49:56.973Z,1007.3
2017-10-30T02:50:59.341Z,1007.2
2017-10-30T02:52:01.708Z,1007.3
2017-10-30T02:53:04.070Z,1007.3
2017-10-30T02:54:06.437Z,1007.3
2017-10-30T02:55:09.195Z,1007.3
2017-10-30T02:56:11.904Z,1007.4
2017-10-30T02:57:14.263Z,1007.3
2017-10-30T02:58:16.634Z,1007.4
2017-10-30T02:59:19.002Z,1007.4
2017-10-30T03:00:21.367Z,1007.4
2017-10-30T03:01:23.737Z,1007.5
2017-10-30T03:02:26.111Z,1007.4
2017-10-30T03:03:28.463Z,1007.4
2017-10-30T03:04:30.830Z,1007.4
2017-10-30T03:05:33.210Z,1007.4
2017-10-30T03:06:35.570Z,1007.5
2017-10-30T03:07:37.944Z,1007.5
2017-10-30T03:08:40.312Z,1007.5
2017-10-30T03:09:42.684Z,1007.5
2017-10-30T03:10:45.411Z,1007.6
2017-10-30T03:11:47.784Z,1007.6
2017-10-30T03:12:50.135Z,1007.6
2017-10-30T03:13:52.504Z,1007.6
2017-10-30T03:14:54.880Z,1007.7
2017-10-30T03:15:57.244Z,1007.7
2017-10-30T03:16:59.982Z,1007.8
2017-10-30T03:18:02.695Z,1007.8
2017-10-30T03:19:05.073Z,1007.8
2017-10-30T03:20:07.791Z,1007.8
2017-10-30T03:21:10.160Z,1007.8
2017-10-30T03:22:12.510Z,1007.8
2017-10-30T03:23:14.879Z,1007.8
2017-10-30T03:24:17.593Z,1007.8
2017-10-30T03:25:19.961Z,1007.8
2017-10-30T03:26:22.334Z,1007.8
2017-10-30T03:27:24.696Z,1007.8
2017-10-30T03:28:27.067Z,1007.9
2017-10-30T03:29:29.447Z,1007.9
2017-10-30T03:30:31.810Z,1008
2017-10-30T03:31:34.179Z,1007.9
2017-10-30T03:32:36.543Z,1008
2017-10-30T03:33:38.909Z,1008
2017-10-30T03:34:41.627Z,1008
2017-10-30T03:35:43.996Z,1008
2017-10-30T03:36:46.728Z,1008
2017-10-30T03:37:49.102Z,1008
2017-10-30T03:38:51.466Z,1008
2017-10-30T03:39:53.844Z,1008
2017-10-30T03:40:56.214Z,1008
2017-10-30T03:41:58.585Z,1008.1
2017-10-30T03:43:00.947Z,1008.1
2017-10-30T03:44:03.318Z,1008.1
2017-10-30T03:45:05.672Z,1008.1
2017-10-30T03:46:08.050Z,1008.2
2017-10-30T03:47:10.404Z,1008.1
2017-10-30T03:48:12.787Z,1008.1
2017-10-30T03:49:15.161Z,1008.1
2017-10-30T03:50:17.514Z,1008.2
2017-10-30T03:51:19.887Z,1008.2
2017-10-30T03:52:22.251Z,1008.2
2017-10-30T03:53:24.617Z,1008.2
2017-10-30T03:54:27.008Z,1008.2
2017-10-30T03:55:29.373Z,1008.2
2017-10-30T03:56:31.744Z,1008.2
2017-10-30T03:57:34.122Z,1008.3
2017-10-30T03:58:36.486Z,1008.3
2017-10-30T03:59:38.847Z,1008.2
2017-10-30T04:00:41.219Z,1008.2
2017-10-30T04:01:43.589Z,1008.3
2017-10-30T04:02:45.943Z,1008.3
2017-10-30T04:03:48.318Z,1008.3
2017-10-30T04:04:50.680Z,1008.3
2017-10-30T04:05:53.055Z,1008.3
2017-10-30T04:06:55.422Z,1008.3
2017-10-30T04:07:57.793Z,1008.3
2017-10-30T04:09:00.160Z,1008.3
2017-10-30T04:10:02.532Z,1008.3
2017-10-30T04:11:04.895Z,1008.3
2017-10-30T04:12:07.257Z,1008.3
2017-10-30T04:13:09.621Z,1008.3
2017-10-30T04:14:11.988Z,1008.3
2017-10-30T04:15:14.358Z,1008.4
2017-10-30T04:16:16.729Z,1008.4
2017-10-30T04:17:19.094Z,1008.4
2017-10-30T04:18:21.448Z,1008.4
2017-10-30T04:19:23.815Z,1008.4
2017-10-30T04:20:26.190Z,1008.4
2017-10-30T04:21:28.892Z,1008.4
2017-10-30T04:22:31.260Z,1008.4
2017-10-30T04:23:33.636Z,1008.5
2017-10-30T04:24:36.352Z,1008.5
2017-10-30T04:25:39.078Z,1008.5
2017-10-30T04:26:41.442Z,1008.6
2017-10-30T04:27:43.804Z,1008.5
2017-10-30T04:28:46.186Z,1008.6
2017-10-30T04:29:48.543Z,1008.6
2017-10-30T04:30:50.908Z,1008.6
2017-10-30T04:31:53.275Z,1008.7
2017-10-30T04:32:56.026Z,1008.6
2017-10-30T04:33:58.764Z,1008.7
2017-10-30T04:35:01.488Z,1008.7
2017-10-30T04:36:04.225Z,1008.7
2017-10-30T04:37:06.600Z,1008.7
2017-10-30T04:38:09.342Z,1008.6
2017-10-30T04:39:11.708Z,1008.6
2017-10-30T04:40:14.077Z,1008.8
2017-10-30T04:41:16.444Z,1008.8
2017-10-30T04:42:18.805Z,1008.8
2017-10-30T04:43:21.170Z,1008.8
2017-10-30T04:44:23.888Z,1008.8
2017-10-30T04:45:26.274Z,1008.9
2017-10-30T04:46:28.630Z,1008.8
2017-10-30T04:47:30.998Z,1008.9
2017-10-30T04:48:33.371Z,1008.9
2017-10-30T04:49:35.735Z,1008.9
2017-10-30T04:50:38.103Z,1008.9
2017-10-30T04:51:40.471Z,1008.8
2017-10-30T04:52:42.835Z,1008.9
2017-10-30T04:53:45.203Z,1008.9
2017-10-30T04:54:47.581Z,1008.9
2017-10-30T04:55:49.936Z,1008.9
2017-10-30T04:56:52.306Z,1008.9
2017-10-30T04:57:54.672Z,1009
2017-10-30T04:58:57.037Z,1008.9
2017-10-30T04:59:59.412Z,1009
2017-10-30T05:01:01.777Z,1009
2017-10-30T05:02:04.156Z,1009
2017-10-30T05:03:06.524Z,1009
2017-10-30T05:04:09.239Z,1009.1
2017-10-30T05:05:11.602Z,1009
2017-10-30T05:06:13.992Z,1009
2017-10-30T05:07:16.355Z,1009.1
2017-10-30T05:08:18.727Z,1009
2017-10-30T05:09:21.788Z,1009.1
2017-10-30T05:10:24.147Z,1009.2
2017-10-30T05:11:26.869Z,1009.1
2017-10-30T05:12:29.237Z,1009.1
2017-10-30T05:13:31.604Z,1009.1
2017-10-30T05:14:33.974Z,1009.1
2017-10-30T05:15:36.343Z,1009.2
2017-10-30T05:16:38.715Z,1009.3
2017-10-30T05:17:41.087Z,1009.2
2017-10-30T05:18:43.449Z,1009.3
2017-10-30T05:19:45.827Z,1009.3
2017-10-30T05:20:48.246Z,1009.3
2017-10-30T05:21:50.608Z,1009.3
2017-10-30T05:22:52.976Z,1009.3
2017-10-30T05:23:55.346Z,1009.3
2017-10-30T05:24:57.708Z,1009.3
2017-10-30T05:26:00.431Z,1009.4
2017-10-30T05:27:02.800Z,1009.4
2017-10-30T05:28:05.157Z,1009.4
2017-10-30T05:29:07.870Z,1009.4
2017-10-30T05:30:10.240Z,1009.4
2017-10-30T05:31:12.603Z,1009.4
2017-10-30T05:32:15.365Z,1009.4
2017-10-30T05:33:17.740Z,1009.4
2017-10-30T05:34:20.112Z,1009.5
2017-10-30T05:35:22.462Z,1009.5
2017-10-30T05:36:25.175Z,1009.4
2017-10-30T05:37:27.545Z,1009.5
2017-10-30T05:38:29.907Z,1009.5
2017-10-30T05:39:32.273Z,1009.5
2017-10-30T05:40:34.992Z,1009.4
2017-10-30T05:41:37.711Z,1009.5
2017-10-30T05:42:40.435Z,1009.5
2017-10-30T05:43:42.799Z,1009.5
2017-10-30T05:44:45.529Z,1009.6
2017-10-30T05:45:47.900Z,1009.6
2017-10-30T05:46:50.265Z,1009.6
2017-10-30T05:47:52.628Z,1009.5
2017-10-30T05:48:54.998Z,1009.5
2017-10-30T05:49:57.365Z,1009.5
2017-10-30T05:50:59.726Z,1009.5
2017-10-30T05:52:02.441Z,1009.6
2017-10-30T05:53:04.811Z,1009.5
2017-10-30T05:54:07.177Z,1009.6
2017-10-30T05:55:10.580Z,1009.6
2017-10-30T05:56:14.225Z,1009.6
2017-10-30T05:57:16.608Z,1009.6
2017-10-30T05:58:18.973Z,1009.6
2017-10-30T05:59:21.352Z,1009.7
2017-10-30T06:00:23.727Z,1009.6
2017-10-30T06:01:26.099Z,1009.7
2017-10-30T06:02:28.459Z,1009.7
2017-10-30T06:03:30.832Z,1009.7
2017-10-30T06:04:33.556Z,1009.7
2017-10-30T06:05:35.925Z,1009.8
2017-10-30T06:06:38.318Z,1009.8
2017-10-30T06:07:41.042Z,1009.8
2017-10-30T06:08:43.421Z,1009.9
2017-10-30T06:09:45.808Z,1009.9
2017-10-30T06:10:48.163Z,1009.9
2017-10-30T06:11:50.532Z,1009.9
2017-10-30T06:12:53.260Z,1009.9
2017-10-30T06:13:55.628Z,1010
2017-10-30T06:14:57.996Z,1010
2017-10-30T06:16:00.358Z,1010
2017-10-30T06:17:03.330Z,1010
2017-10-30T06:18:06.999Z,1010
2017-10-30T06:19:09.718Z,1010
2017-10-30T06:20:12.096Z,1010.1
2017-10-30T06:21:14.479Z,1010.1
2017-10-30T06:22:16.849Z,1010.1
2017-10-30T06:23:19.565Z,1010.1
2017-10-30T06:24:21.958Z,1010.1
2017-10-30T06:25:24.864Z,1010.2
2017-10-30T06:26:27.380Z,1010.2
2017-10-30T06:27:30.115Z,1010.2
2017-10-30T06:28:32.491Z,1010.2
2017-10-30T06:29:34.861Z,1010.2
2017-10-30T06:30:37.607Z,1010.3
2017-10-30T06:31:40.335Z,1010.3
2017-10-30T06:32:42.703Z,1010.3
2017-10-30T06:33:45.179Z,1010.3
2017-10-30T06:34:48.081Z,1010.3
2017-10-30T06:35:50.571Z,1010.3
2017-10-30T06:36:53.294Z,1010.4
2017-10-30T06:37:55.653Z,1010.3
2017-10-30T06:38:58.159Z,1010.4
2017-10-30T06:40:00.585Z,1010.4
2017-10-30T06:41:03.364Z,1010.4
2017-10-30T06:42:05.765Z,1010.5
2017-10-30T06:43:08.946Z,1010.5
2017-10-30T06:44:11.319Z,1010.6
2017-10-30T06:45:13.691Z,1010.5
2017-10-30T06:46:16.454Z,1010.6
2017-10-30T06:47:19.176Z,1010.5
2017-10-30T06:48:22.212Z,1010.6
2017-10-30T06:49:24.586Z,1010.6
2017-10-30T06:50:27.208Z,1010.6
2017-10-30T06:51:29.587Z,1010.6
2017-10-30T06:52:33.165Z,1010.6
2017-10-30T06:53:35.530Z,1010.6
2017-10-30T06:54:37.894Z,1010.6
2017-10-30T06:55:40.262Z,1010.5
2017-10-30T06:56:43.011Z,1010.7
2017-10-30T06:57:45.393Z,1010.7
2017-10-30T06:58:47.774Z,1010.7
2017-10-30T06:59:50.136Z,1010.7
2017-10-30T07:00:52.510Z,1010.7
2017-10-30T07:01:54.871Z,1010.7
2017-10-30T07:02:57.258Z,1010.7
2017-10-30T07:03:59.615Z,1010.8
2017-10-30T07:05:03.378Z,1010.7
2017-10-30T07:06:05.742Z,1010.8
2017-10-30T07:07:08.226Z,1010.8
2017-10-30T07:08:11.337Z,1010.8
2017-10-30T07:09:13.702Z,1010.8
2017-10-30T07:10:16.185Z,1010.8
2017-10-30T07:11:18.551Z,1010.8
2017-10-30T07:12:20.922Z,1010.9
2017-10-30T07:13:23.301Z,1010.9
2017-10-30T07:14:25.663Z,1010.9
2017-10-30T07:15:28.198Z,1010.9
2017-10-30T07:16:30.546Z,1010.9
2017-10-30T07:17:32.916Z,1011
2017-10-30T07:18:35.286Z,1011
2017-10-30T07:19:37.655Z,1010.9
2017-10-30T07:20:40.028Z,1011.1
2017-10-30T07:21:42.589Z,1011
2017-10-30T07:22:44.945Z,1011
2017-10-30T07:23:47.670Z,1011.1
2017-10-30T07:24:50.079Z,1011
2017-10-30T07:25:52.408Z,1011.1
2017-10-30T07:26:54.846Z,1011.1
2017-10-30T07:27:57.360Z,1011.1
2017-10-30T07:28:59.725Z,1011.1
2017-10-30T07:30:02.461Z,1011.1
2017-10-30T07:31:04.832Z,1011.1
2017-10-30T07:32:07.213Z,1011.2
2017-10-30T07:33:10.149Z,1011.2
2017-10-30T07:34:12.503Z,1011.2
2017-10-30T07:35:14.875Z,1011.1
2017-10-30T07:36:17.247Z,1011.2
2017-10-30T07:37:19.626Z,1011.2
2017-10-30T07:38:21.989Z,1011.1
2017-10-30T07:39:24.362Z,1011.1
2017-10-30T07:40:26.733Z,1011.1
2017-10-30T07:41:29.468Z,1011.2
2017-10-30T07:42:31.843Z,1011.2
2017-10-30T07:43:34.209Z,1011.1
2017-10-30T07:44:36.586Z,1011.1
2017-10-30T07:45:38.958Z,1011.2
2017-10-30T07:46:41.334Z,1011.2
2017-10-30T07:47:43.710Z,1011.2
2017-10-30T07:48:46.069Z,1011.2
2017-10-30T07:49:48.448Z,1011.2
2017-10-30T07:50:50.827Z,1011.2
2017-10-30T07:51:53.200Z,1011.2
2017-10-30T07:52:55.564Z,1011.2
2017-10-30T07:53:57.927Z,1011.3
2017-10-30T07:55:00.287Z,1011.3
2017-10-30T07:56:02.678Z,1011.2
2017-10-30T07:57:05.056Z,1011.2
2017-10-30T07:58:07.424Z,1011.2
2017-10-30T07:59:09.791Z,1011.3
2017-10-30T08:00:12.169Z,1011.3
2017-10-30T08:01:14.536Z,1011.3
2017-10-30T08:02:16.911Z,1011.3
2017-10-30T08:03:19.275Z,1011.3
2017-10-30T08:04:21.648Z,1011.4
2017-10-30T08:05:24.017Z,1011.4
2017-10-30T08:06:26.392Z,1011.5
2017-10-30T08:07:28.754Z,1011.5
2017-10-30T08:08:31.505Z,1011.4
2017-10-30T08:09:33.886Z,1011.5
2017-10-30T08:10:36.264Z,1011.5
2017-10-30T08:11:38.644Z,1011.5
2017-10-30T08:12:41.017Z,1011.5
2017-10-30T08:13:43.396Z,1011.5
2017-10-30T08:14:45.774Z,1011.5
2017-10-30T08:15:48.147Z,1011.5
2017-10-30T08:16:50.873Z,1011.5
2017-10-30T08:17:53.255Z,1011.5
2017-10-30T08:18:55.637Z,1011.6
2017-10-30T08:19:58.011Z,1011.6
2017-10-30T08:21:00.393Z,1011.6
2017-10-30T08:22:02.760Z,1011.6
2017-10-30T08:23:05.144Z,1011.6
2017-10-30T08:24:07.519Z,1011.7
2017-10-30T08:25:10.237Z,1011.7
2017-10-30T08:26:12.623Z,1011.6
2017-10-30T08:27:15.002Z,1011.6
2017-10-30T08:28:17.386Z,1011.6
2017-10-30T08:29:19.761Z,1011.7
2017-10-30T08:30:22.132Z,1011.7
2017-10-30T08:31:24.528Z,1011.7
2017-10-30T08:32:26.894Z,1011.7
2017-10-30T08:33:29.270Z,1011.7
2017-10-30T08:34:31.656Z,1011.7
2017-10-30T08:35:34.375Z,1011.7
2017-10-30T08:36:36.761Z,1011.7
2017-10-30T08:37:39.146Z,1011.7
2017-10-30T08:38:41.525Z,1011.6
2017-10-30T08:39:43.915Z,1011.7
2017-10-30T08:40:46.293Z,1011.7
2017-10-30T08:41:49.020Z,1011.7
2017-10-30T08:42:51.394Z,1011.8
2017-10-30T08:43:53.774Z,1011.8
2017-10-30T08:44:56.508Z,1011.8
2017-10-30T08:45:58.897Z,1011.8
2017-10-30T08:47:01.272Z,1011.8
2017-10-30T08:48:03.662Z,1011.8
2017-10-30T08:49:06.763Z,1011.8
2017-10-30T08:50:09.144Z,1011.8
2017-10-30T08:51:11.528Z,1011.8
2017-10-30T08:52:13.913Z,1011.8
2017-10-30T08:53:16.293Z,1011.8
2017-10-30T08:54:18.678Z,1011.8
2017-10-30T08:55:21.064Z,1011.8
2017-10-30T08:56:23.444Z,1011.8
2017-10-30T08:57:25.827Z,1011.8
2017-10-30T08:58:28.206Z,1011.8
2017-10-30T08:59:30.596Z,1011.8
2017-10-30T09:00:32.987Z,1011.8
2017-10-30T09:01:35.386Z,1011.8
2017-10-30T09:02:37.771Z,1011.9
2017-10-30T09:03:40.523Z,1011.9
2017-10-30T09:04:42.913Z,1011.9
2017-10-30T09:05:45.297Z,1011.9
2017-10-30T09:06:47.720Z,1011.9
2017-10-30T09:07:50.058Z,1011.9
2017-10-30T09:08:52.813Z,1012
2017-10-30T09:09:55.189Z,1012
2017-10-30T09:10:57.575Z,1012
2017-10-30T09:11:59.946Z,1012
2017-10-30T09:14:06.916Z,1012
2017-10-30T09:15:09.303Z,1012.1
2017-10-30T09:16:11.692Z,1012.2
2017-10-30T09:17:14.074Z,1012.2
2017-10-30T09:18:16.809Z,1012
2017-10-30T09:19:19.185Z,1012.1
2017-10-30T09:20:21.585Z,1012.1
2017-10-30T09:21:23.953Z,1012
2017-10-30T09:22:26.701Z,1012.1
2017-10-30T09:23:29.775Z,1012.1
2017-10-30T09:24:32.164Z,1012.1
2017-10-30T09:25:34.548Z,1012.1
2017-10-30T09:26:37.287Z,1012.1
2017-10-30T09:27:39.662Z,1012
2017-10-30T09:28:42.054Z,1012
2017-10-30T09:29:44.439Z,1012
2017-10-30T09:30:46.824Z,1012.1
2017-10-30T09:31:49.202Z,1012.1
2017-10-30T09:32:51.590Z,1012.1
2017-10-30T09:33:53.978Z,1012.1
2017-10-30T09:34:56.368Z,1012.1
2017-10-30T09:35:58.764Z,1012.1
2017-10-30T09:37:01.144Z,1012
2017-10-30T09:38:03.529Z,1012
2017-10-30T09:39:05.927Z,1012
2017-10-30T09:40:08.313Z,1012.1
2017-10-30T09:41:10.697Z,1012.2
2017-10-30T09:42:13.149Z,1012.2
2017-10-30T09:43:15.532Z,1012.1
2017-10-30T09:44:17.930Z,1012.2
2017-10-30T09:45:20.317Z,1012.2
2017-10-30T09:46:22.685Z,1012.3
2017-10-30T09:47:25.073Z,1012.2
2017-10-30T09:48:27.820Z,1012.3
2017-10-30T09:49:30.203Z,1012.3
2017-10-30T09:50:32.596Z,1012.3
2017-10-30T09:51:34.978Z,1012.4
2017-10-30T09:52:37.368Z,1012.4
2017-10-30T09:53:39.766Z,1012.3
2017-10-30T09:54:42.543Z,1012.4
2017-10-30T09:55:44.937Z,1012.3
2017-10-30T09:56:47.323Z,1012.4
2017-10-30T09:57:49.707Z,1012.3
2017-10-30T09:58:52.095Z,1012.4
2017-10-30T09:59:54.501Z,1012.4
2017-10-30T10:00:56.895Z,1012.4
2017-10-30T10:01:59.289Z,1012.5
2017-10-30T10:03:01.892Z,1012.4
2017-10-30T10:04:04.289Z,1012.5
2017-10-30T10:05:06.690Z,1012.4
2017-10-30T10:06:09.074Z,1012.4
2017-10-30T10:07:11.481Z,1012.4
2017-10-30T10:08:14.025Z,1012.4
2017-10-30T10:09:16.595Z,1012.5
2017-10-30T10:10:18.986Z,1012.4
2017-10-30T10:11:21.767Z,1012.5
2017-10-30T10:12:24.139Z,1012.5
2017-10-30T10:13:27.013Z,1012.6
2017-10-30T10:14:29.507Z,1012.5
2017-10-30T10:15:31.897Z,1012.5
2017-10-30T10:16:34.285Z,1012.6
2017-10-30T10:17:36.689Z,1012.5
2017-10-30T10:18:39.432Z,1012.4
2017-10-30T10:19:42.585Z,1012.5
2017-10-30T10:20:44.973Z,1012.5
2017-10-30T10:21:47.359Z,1012.6
2017-10-30T10:22:49.767Z,1012.6
2017-10-30T10:23:52.156Z,1012.6
2017-10-30T10:24:54.918Z,1012.6
2017-10-30T10:25:57.314Z,1012.6
2017-10-30T10:26:59.687Z,1012.6
2017-10-30T10:28:02.299Z,1012.7
2017-10-30T10:29:04.697Z,1012.6
2017-10-30T10:30:07.081Z,1012.7
2017-10-30T10:31:09.470Z,1012.7
2017-10-30T10:32:12.099Z,1012.7
2017-10-30T10:33:14.507Z,1012.6
2017-10-30T10:34:16.869Z,1012.6
2017-10-30T10:35:19.269Z,1012.7
2017-10-30T10:36:21.644Z,1012.7
2017-10-30T10:37:24.171Z,1012.7
2017-10-30T10:38:26.559Z,1012.6
2017-10-30T10:39:28.950Z,1012.6
2017-10-30T10:40:31.338Z,1012.6
2017-10-30T10:41:34.072Z,1012.7
2017-10-30T10:42:36.459Z,1012.7
2017-10-30T10:43:38.865Z,1012.7
2017-10-30T10:44:41.248Z,1012.7
2017-10-30T10:45:43.720Z,1012.7
2017-10-30T10:46:46.112Z,1012.7
2017-10-30T10:47:48.494Z,1012.7
2017-10-30T10:48:50.883Z,1012.8
2017-10-30T10:49:53.394Z,1012.7
2017-10-30T10:50:55.768Z,1012.8
2017-10-30T10:51:58.161Z,1012.8
2017-10-30T10:53:00.631Z,1012.7
2017-10-30T10:54:03.021Z,1012.7
2017-10-30T10:55:05.403Z,1012.8
2017-10-30T10:56:07.797Z,1012.8
2017-10-30T10:57:10.181Z,1012.8
2017-10-30T10:58:12.570Z,1012.8
2017-10-30T10:59:14.960Z,1012.8
2017-10-30T11:00:17.361Z,1012.8
2017-10-30T11:01:19.748Z,1012.8
2017-10-30T11:02:22.133Z,1012.9
2017-10-30T11:03:24.687Z,1012.8
2017-10-30T11:04:27.065Z,1012.8
2017-10-30T11:05:29.753Z,1012.8
2017-10-30T11:06:32.134Z,1012.9
2017-10-30T11:07:34.518Z,1012.9
2017-10-30T11:08:36.898Z,1012.9
2017-10-30T11:09:39.301Z,1012.9
2017-10-30T11:10:42.049Z,1012.9
2017-10-30T11:11:44.436Z,1012.9
2017-10-30T11:12:46.825Z,1012.9
2017-10-30T11:13:49.227Z,1013
2017-10-30T11:14:51.616Z,1012.9
2017-10-30T11:15:54.005Z,1012.9
2017-10-30T11:16:56.394Z,1013
2017-10-30T11:17:58.777Z,1013
2017-10-30T11:19:01.182Z,1013
2017-10-30T11:20:03.906Z,1013
2017-10-30T11:21:06.669Z,1013
2017-10-30T11:22:09.061Z,1013
2017-10-30T11:23:11.448Z,1013
2017-10-30T11:24:14.194Z,1013
2017-10-30T11:25:16.587Z,1013
2017-10-30T11:26:19.326Z,1013
2017-10-30T11:27:21.718Z,1013
2017-10-30T11:28:24.110Z,1013
2017-10-30T11:29:26.501Z,1013.1
2017-10-30T11:30:29.253Z,1013.1
2017-10-30T11:31:31.638Z,1013
2017-10-30T11:32:34.026Z,1013.1
2017-10-30T11:33:36.403Z,1013.1
2017-10-30T11:34:38.802Z,1013.1
2017-10-30T11:35:41.180Z,1013.2
2017-10-30T11:36:43.584Z,1013.1
2017-10-30T11:37:45.978Z,1013.1
2017-10-30T11:38:48.364Z,1013.2
2017-10-30T11:39:50.747Z,1013.2
2017-10-30T11:40:53.139Z,1013.2
2017-10-30T11:41:55.519Z,1013.2
2017-10-30T11:42:57.910Z,1013.2
2017-10-30T11:44:00.297Z,1013.2
2017-10-30T11:45:03.036Z,1013.2
2017-10-30T11:46:05.420Z,1013.3
2017-10-30T11:47:07.806Z,1013.1
2017-10-30T11:48:10.196Z,1013.2
2017-10-30T11:49:12.582Z,1013.2
2017-10-30T11:50:14.964Z,1013.2
2017-10-30T11:51:17.360Z,1013.3
2017-10-30T11:52:19.737Z,1013.2
2017-10-30T11:53:22.137Z,1013.2
2017-10-30T11:54:24.516Z,1013.3
2017-10-30T11:55:26.904Z,1013.2
2017-10-30T11:56:29.488Z,1013.3
2017-10-30T11:57:31.862Z,1013.3
2017-10-30T11:58:34.247Z,1013.2
2017-10-30T11:59:36.645Z,1013.3
2017-10-30T12:00:39.021Z,1013.3
2017-10-30T12:01:41.403Z,1013.2
2017-10-30T12:02:43.789Z,1013.2
2017-10-30T12:03:46.528Z,1013.2
2017-10-30T12:04:49.262Z,1013.2
2017-10-30T12:05:51.653Z,1013.2
2017-10-30T12:06:54.026Z,1013.2
2017-10-30T12:07:56.412Z,1013.1
2017-10-30T12:08:58.799Z,1013.2
2017-10-30T12:10:01.178Z,1013.2
2017-10-30T12:11:03.560Z,1013.3
2017-10-30T12:12:05.942Z,1013.3
2017-10-30T12:13:08.685Z,1013.2
2017-10-30T12:14:11.064Z,1013.3
2017-10-30T12:15:13.449Z,1013.3
2017-10-30T12:16:15.829Z,1013.3
2017-10-30T12:17:18.201Z,1013.3
2017-10-30T12:18:20.600Z,1013.4
2017-10-30T12:19:23.339Z,1013.3
2017-10-30T12:20:25.725Z,1013.3
2017-10-30T12:21:28.107Z,1013.4
2017-10-30T12:22:30.506Z,1013.2
2017-10-30T12:23:32.885Z,1013.3
2017-10-30T12:24:35.274Z,1013.3
2017-10-30T12:25:37.646Z,1013.3
2017-10-30T12:26:40.029Z,1013.4
2017-10-30T12:27:42.412Z,1013.5
2017-10-30T12:28:44.789Z,1013.5
2017-10-30T12:29:47.162Z,1013.5
2017-10-30T12:30:49.555Z,1013.5
2017-10-30T12:31:52.285Z,1013.6
2017-10-30T12:32:54.676Z,1013.5
2017-10-30T12:33:57.065Z,1013.5
2017-10-30T12:34:59.448Z,1013.5
2017-10-30T12:36:01.836Z,1013.5
2017-10-30T12:37:04.215Z,1013.6
2017-10-30T12:38:06.598Z,1013.5
2017-10-30T12:39:08.976Z,1013.6
2017-10-30T12:40:11.360Z,1013.5
2017-10-30T12:41:13.734Z,1013.5
2017-10-30T12:42:16.479Z,1013.5
2017-10-30T12:43:18.866Z,1013.5
2017-10-30T12:44:21.245Z,1013.4
2017-10-30T12:45:23.626Z,1013.4
2017-10-30T12:46:25.998Z,1013.5
2017-10-30T12:47:28.389Z,1013.4
2017-10-30T12:48:30.781Z,1013.4
2017-10-30T12:49:33.152Z,1013.5
2017-10-30T12:50:35.531Z,1013.5
2017-10-30T12:51:37.924Z,1013.5
2017-10-30T12:52:40.302Z,1013.5
2017-10-30T12:53:42.681Z,1013.5
2017-10-30T12:54:45.067Z,1013.5
2017-10-30T12:55:47.444Z,1013.5
2017-10-30T12:56:50.181Z,1013.5
2017-10-30T12:57:52.559Z,1013.5
2017-10-30T12:58:54.938Z,1013.5
2017-10-30T12:59:57.329Z,1013.5
2017-10-30T13:01:00.066Z,1013.6
2017-10-30T13:02:02.451Z,1013.5
2017-10-30T13:03:04.844Z,1013.6
2017-10-30T13:04:07.598Z,1013.6